Baileyville, IL (61007)

5:42 PM CDT on August 29, 2015 (GMT -0500)
Albertus | | Change Station
CLOSE
Current Station
Airport
Location: Freeport,
Elevation: 860 ft
Nearby Weather Stations

Elev 860 ft 42.25 °N, 89.58 °W | Updated 7 minutes ago

Overcast
Overcast
70 °F
Feels Like 70 °F
N
4
Wind Variable Wind from North

Today
High -- | Low -- °F
--% Chance of Precip.
Yesterday
High -- | Low -- °F
Precip. -- in
6:20 AM 7:37 PM
Full, 100% visible
Pressure 30.03 in
Visibility 10.0 miles
Clouds Scattered Clouds 1800 ft
Overcast 2600 ft
Dew Point 65 °F
Humidity 83%
Rainfall 1.48 in
Snow Depth Not available.
UV 1 out of 12
Pollen .70 out of 12
Air Quality Not available.
Flu Activity Not available.
METAR KFEP 292235Z AUTO 01003KT 10SM SCT018 OVC026 21/18 A3003 RMK AO2 T02100181
Pressure 30.03 in
Visibility 10.0 miles
Clouds Scattered Clouds 1800 ft
Overcast 2600 ft
Dew Point 65 °F
Humidity 83%
Rainfall 1.48 in
Snow Depth Not available.
UV 1 out of 12
Pollen .70 out of 12
Air Quality Not available.
Flu Activity Not available.
METAR KFEP 292235Z AUTO 01003KT 10SM SCT018 OVC026 21/18 A3003 RMK AO2 T02100181

10-Day Weather Forecast

×

Almanac

Astronomy

Aug. 29, 2015 Rise Set
Actual Time
Civil Twilight
Nautical Twilight
Astronomical Twilight
Moon
Length of Visible Light
Length of Day
Tomorrow will be .
, % of the Moon is Illuminated

Today's Extremes

State Highs State Lows

Community

WunderPhotos

Upload Photos

1,850,775 photos uploaded!

WunderBlogs® & News

Nearby

Air Quality

  Air Quality AQ Index Pollutant
Not available.

Snow Depth

Station Depth Elevation

Earthquake Activity

City Distance Mag. Time & Date
Minimum magnitude displayed is 2.5.

Coastal Water Temperatures

Place Temperature

Stations

Nearby Weather Stations

Station Location Temp. Windchill Dew Point Humidity Wind Precip. Elev Updated Type